Map

Track Data

SID SEASON NUMBER BASIN SUBBASIN NAME ISO_TIME NATURE LAT LON WMO_WIND WMO_PRES WMO_AGENCY TRACK_TYPE DIST2LAND LANDFALL IFLAG USA_AGENCY USA_ATCF_ID USA_LAT USA_LON USA_RECORD USA_STATUS USA_WIND USA_PRES USA_SSHS USA_R34_NE USA_R34_SE USA_R34_SW USA_R34_NW USA_R50_NE USA_R50_SE USA_R50_SW USA_R50_NW USA_R64_NE USA_R64_SE USA_R64_SW USA_R64_NW USA_POCI USA_ROCI USA_RMW USA_EYE TOKYO_LAT TOKYO_LON TOKYO_GRADE TOKYO_WIND TOKYO_PRES TOKYO_R50_DIR TOKYO_R50_LONG TOKYO_R50_SHORT TOKYO_R30_DIR TOKYO_R30_LONG TOKYO_R30_SHORT TOKYO_LAND CMA_LAT CMA_LON CMA_CAT CMA_WIND CMA_PRES HKO_LAT HKO_LON HKO_CAT HKO_WIND HKO_PRES NEWDELHI_LAT NEWDELHI_LON NEWDELHI_GRADE NEWDELHI_WIND NEWDELHI_PRES NEWDELHI_CI NEWDELHI_DP NEWDELHI_POCI REUNION_LAT REUNION_LON REUNION_TYPE REUNION_WIND REUNION_PRES REUNION_TNUM REUNION_CI REUNION_RMW REUNION_R34_NE REUNION_R34_SE REUNION_R34_SW REUNION_R34_NW REUNION_R50_NE REUNION_R50_SE REUNION_R50_SW REUNION_R50_NW REUNION_R64_NE REUNION_R64_SE REUNION_R64_SW REUNION_R64_NW BOM_LAT BOM_LON BOM_TYPE BOM_WIND BOM_PRES BOM_TNUM BOM_CI BOM_RMW BOM_R34_NE BOM_R34_SE BOM_R34_SW BOM_R34_NW BOM_R50_NE BOM_R50_SE BOM_R50_SW BOM_R50_NW BOM_R64_NE BOM_R64_SE BOM_R64_SW BOM_R64_NW BOM_ROCI BOM_POCI BOM_EYE BOM_POS_METHOD BOM_PRES_METHOD NADI_LAT NADI_LON NADI_CAT NADI_WIND NADI_PRES WELLINGTON_LAT WELLINGTON_LON WELLINGTON_WIND WELLINGTON_PRES DS824_LAT DS824_LON DS824_STAGE DS824_WIND DS824_PRES TD9636_LAT TD9636_LON TD9636_STAGE TD9636_WIND TD9636_PRES TD9635_LAT TD9635_LON TD9635_WIND TD9635_PRES TD9635_ROCI NEUMANN_LAT NEUMANN_LON NEUMANN_CLASS NEUMANN_WIND NEUMANN_PRES MLC_LAT MLC_LON MLC_CLASS MLC_WIND MLC_PRES USA_GUST BOM_GUST BOM_GUST_PER REUNION_GUST REUNION_GUST_PER USA_SEAHGT USA_SEARAD_NE USA_SEARAD_SE USA_SEARAD_SW USA_SEARAD_NW STORM_SPEED STORM_DIR
1951006S17052 1951 2 SI MM NOT_NAMED 1951-01-06 06:00:00 TS -17.1000 52.1000 main 237 237 O________OO___ jtwc_sh SH071951 -17.1000 52.1000 -1 -17.1000 52.1000 TC -17.1000 52.1000 7 14 160
1951006S17052 1951 2 SI MM NOT_NAMED 1951-01-06 09:00:00 TS -17.7565 52.3437 main 288 288 P________PP___ SH071951 -17.7676 52.3347 -1 -17.7676 52.3347 TC -17.7344 52.3617 7 14 159
1951006S17052 1951 2 SI MM NOT_NAMED 1951-01-06 12:00:00 TS -18.3850 52.6131 main 337 337 O________OP___ jtwc_sh SH071951 -18.4000 52.6000 -1 -18.4000 52.6000 TC -18.3550 52.6394 7 13 155
1951006S17052 1951 2 SI MM NOT_NAMED 1951-01-06 15:00:00 TS -18.9643 52.9293 main 335 266 P________PP___ SH071951 -18.9724 52.9202 -1 -18.9724 52.9202 TC -18.9480 52.9473 7 13 150
1951006S17052 1951 2 SI MM NOT_NAMED 1951-01-06 18:00:00 TS -19.5000 53.3000 main 266 198 O________OO___ jtwc_sh SH071951 -19.5000 53.3000 -1 -19.5000 53.3000 TC -19.5000 53.3000 2 13 145
1951006S17052 1951 2 SI MM NOT_NAMED 1951-01-06 21:00:00 TS -20.0245 53.7299 main 198 123 P________PP___ SH071951 -20.0375 53.7424 -1 -20.0375 53.7424 TC -19.9983 53.7050 2 13 140
1951006S17052 1951 2 SI MM NOT_NAMED 1951-01-07 00:00:00 TS -20.4785 54.1806 main 123 70 O________OP___ jtwc_sh SH071951 -20.5000 54.2000 -1 -20.5000 54.2000 TC -20.4354 54.1419 2 12 135
1951006S17052 1951 2 SI MM NOT_NAMED 1951-01-07 03:00:00 TS -20.8365 54.6045 main 70 20 P________PP___ SH071951 -20.8524 54.6152 -1 -20.8524 54.6152 TC -20.8046 54.5830 2 10 129
1951006S17052 1951 2 SI MM NOT_NAMED 1951-01-07 06:00:00 TS -21.1000 55.0000 main 20 0 O________OO___ jtwc_sh SH071951 -21.1000 55.0000 -1 -21.1000 55.0000 TC -21.1000 55.0000 2 8 123
1951006S17052 1951 2 SI MM NOT_NAMED 1951-01-07 09:00:00 TS -21.2901 55.3645 main 0 0 P________PP___ SH071951 -21.2724 55.3652 -1 -21.2724 55.3652 TC -21.3255 55.3630 2 7 117
1951006S17052 1951 2 SI MM NOT_NAMED 1951-01-07 12:00:00 TS -21.4273 55.6988 main 10 10 O________OP___ jtwc_sh SH071951 -21.4000 55.7000 -1 -21.4000 55.7000 TC -21.4820 55.6964 2 7 115
1951006S17052 1951 2 SI MM NOT_NAMED 1951-01-07 15:00:00 TS -21.5658 56.0122 main 39 39 P________PP___ SH071951 -21.5499 56.0151 -1 -21.5499 56.0151 TC -21.5975 56.0065 2 6 116
1951006S17052 1951 2 SI MM NOT_NAMED 1951-01-07 18:00:00 TS -21.7000 56.3000 main 68 68 O________OO___ jtwc_sh SH071951 -21.7000 56.3000 -1 -21.7000 56.3000 TC -21.7000 56.3000 2 6 119
1951006S17052 1951 2 SI MM NOT_NAMED 1951-01-07 21:00:00 TS -21.8502 56.5565 main 106 106 P________PP___ SH071951 -21.8574 56.5501 -1 -21.8574 56.5501 TC -21.8357 56.5694 2 6 121
1951006S17052 1951 2 SI MM NOT_NAMED 1951-01-08 00:00:00 TS -21.9881 56.8093 main 129 129 O________OP___ jtwc_sh SH071951 -22.0000 56.8000 -1 -22.0000 56.8000 TC -21.9642 56.8280 2 6 117
1951006S17052 1951 2 SI MM NOT_NAMED 1951-01-08 03:00:00 TS -22.1001 57.0842 main 161 161 P________PP___ SH071951 -22.1074 57.0776 -1 -22.1074 57.0776 TC -22.0857 57.0975 2 6 111
1951006S17052 1951 2 SI MM NOT_NAMED 1951-01-08 06:00:00 TS -22.2000 57.4000 main 190 190 O________OO___ jtwc_sh SH071951 -22.2000 57.4000 -1 -22.2000 57.4000 TC -22.2000 57.4000 2 7 107
1951006S17052 1951 2 SI MM NOT_NAMED 1951-01-08 09:00:00 TS -22.3038 57.7821 main 201 201 P________PP___ SH071951 -22.3000 57.7850 -1 -22.3000 57.7850 TC -22.3115 57.7762 2 8 106
1951006S17052 1951 2 SI MM NOT_NAMED 1951-01-08 12:00:00 TS -22.4051 58.1950 main 218 218 O________OP___ jtwc_sh SH071951 -22.4000 58.2000 -1 -22.4000 58.2000 TC -22.4154 58.1850 2 8 105
1951006S17052 1951 2 SI MM NOT_NAMED 1951-01-08 15:00:00 TS -22.5038 58.6054 main 242 242 P________PP___ SH071951 -22.5000 58.6075 -1 -22.5000 58.6075 TC -22.5115 58.6012 2 8 105
1951006S17052 1951 2 SI MM NOT_NAMED 1951-01-08 18:00:00 TS -22.6000 59.0000 main 270 270 O________OO___ jtwc_sh SH071951 -22.6000 59.0000 -1 -22.6000 59.0000 TC -22.6000 59.0000 7 7 106
1951006S17052 1951 2 SI MM NOT_NAMED 1951-01-08 21:00:00 TS -22.6988 59.3640 main 302 302 P________PP___ SH071951 -22.7074 59.3650 -1 -22.7074 59.3650 TC -22.6815 59.3621 7 7 106
1951006S17052 1951 2 SI MM NOT_NAMED 1951-01-09 00:00:00 TS -22.7858 59.6975 main 329 329 O________OP___ jtwc_sh SH071951 -22.8000 59.7000 -1 -22.8000 59.7000 TC -22.7575 59.6924 7 6 104
1951006S17052 1951 2 SI MM NOT_NAMED 1951-01-09 03:00:00 TS -22.8500 60.0055 main 350 350 P________PP___ SH071951 -22.8601 60.0075 -1 -22.8601 60.0075 TC -22.8298 60.0014 7 6 102
1951006S17052 1951 2 SI MM NOT_NAMED 1951-01-09 06:00:00 TS -22.9000 60.3000 main 379 O________OO___ jtwc_sh SH071951 -22.9000 60.3000 -1 -22.9000 60.3000 TC -22.9000 60.3000 7 6 100

About IBTrACS Database

This database is a web-friendly format of International Best Track Archive for Climate Stewardship (IBTrACS), a global best track data archive curated by NOAA dating back to 1842.

Updated: 2021-10-27